sensor_id;sensor_type;location;lat;lon;timestamp;P1;durP1;ratioP1;P2;durP2;ratioP2
60060;SDS011;45933;51.336;12.612;2024-01-10T00:02:12;66.40;;;29.37;;
60060;SDS011;45933;51.336;12.612;2024-01-10T00:04:37;66.17;;;28.43;;
60060;SDS011;45933;51.336;12.612;2024-01-10T00:07:03;70.57;;;28.60;;
60060;SDS011;45933;51.336;12.612;2024-01-10T00:09:29;74.50;;;31.83;;
60060;SDS011;45933;51.336;12.612;2024-01-10T00:11:55;68.23;;;30.63;;
60060;SDS011;45933;51.336;12.612;2024-01-10T00:14:20;66.30;;;27.60;;
60060;SDS011;45933;51.336;12.612;2024-01-10T00:16:45;69.97;;;30.30;;
60060;SDS011;45933;51.336;12.612;2024-01-10T00:19:10;66.17;;;28.67;;
60060;SDS011;45933;51.336;12.612;2024-01-10T00:21:36;71.27;;;29.63;;
60060;SDS011;45933;51.336;12.612;2024-01-10T00:24:02;66.40;;;29.47;;
60060;SDS011;45933;51.336;12.612;2024-01-10T00:26:27;70.17;;;28.67;;
60060;SDS011;45933;51.336;12.612;2024-01-10T00:28:53;66.00;;;29.17;;
60060;SDS011;45933;51.336;12.612;2024-01-10T00:31:18;69.23;;;29.50;;
60060;SDS011;45933;51.336;12.612;2024-01-10T00:33:43;70.50;;;30.17;;
60060;SDS011;45933;51.336;12.612;2024-01-10T00:36:09;80.23;;;32.57;;
60060;SDS011;45933;51.336;12.612;2024-01-10T00:38:34;68.27;;;31.37;;
60060;SDS011;45933;51.336;12.612;2024-01-10T00:40:59;74.13;;;31.27;;
60060;SDS011;45933;51.336;12.612;2024-01-10T00:43:24;73.33;;;30.27;;
60060;SDS011;45933;51.336;12.612;2024-01-10T00:45:50;70.73;;;30.87;;
60060;SDS011;45933;51.336;12.612;2024-01-10T00:48:15;76.50;;;30.50;;
60060;SDS011;45933;51.336;12.612;2024-01-10T00:50:42;75.50;;;33.33;;
60060;SDS011;45933;51.336;12.612;2024-01-10T00:53:09;74.50;;;32.30;;
60060;SDS011;45933;51.336;12.612;2024-01-10T00:55:34;74.23;;;31.40;;
60060;SDS011;45933;51.336;12.612;2024-01-10T00:57:59;72.20;;;30.33;;
60060;SDS011;45933;51.336;12.612;2024-01-10T01:00:24;83.33;;;36.97;;
60060;SDS011;45933;51.336;12.612;2024-01-10T01:02:50;70.97;;;30.50;;
60060;SDS011;45933;51.336;12.612;2024-01-10T01:05:16;77.40;;;34.57;;
60060;SDS011;45933;51.336;12.612;2024-01-10T01:07:41;71.33;;;31.27;;
60060;SDS011;45933;51.336;12.612;2024-01-10T01:10:06;81.97;;;32.63;;
60060;SDS011;45933;51.336;12.612;2024-01-10T01:12:33;71.83;;;31.83;;
60060;SDS011;45933;51.336;12.612;2024-01-10T01:14:59;95.43;;;38.60;;
60060;SDS011;45933;51.336;12.612;2024-01-10T01:17:24;105.53;;;46.27;;
60060;SDS011;45933;51.336;12.612;2024-01-10T01:19:49;83.10;;;35.63;;
60060;SDS011;45933;51.336;12.612;2024-01-10T01:22:14;78.33;;;32.97;;
60060;SDS011;45933;51.336;12.612;2024-01-10T01:24:40;71.97;;;30.23;;
60060;SDS011;45933;51.336;12.612;2024-01-10T01:27:05;71.97;;;29.90;;
60060;SDS011;45933;51.336;12.612;2024-01-10T01:29:30;76.20;;;31.33;;
60060;SDS011;45933;51.336;12.612;2024-01-10T01:31:56;67.30;;;29.13;;
60060;SDS011;45933;51.336;12.612;2024-01-10T01:34:22;74.50;;;29.40;;
60060;SDS011;45933;51.336;12.612;2024-01-10T01:36:47;62.80;;;27.07;;
60060;SDS011;45933;51.336;12.612;2024-01-10T01:39:12;65.67;;;28.00;;
60060;SDS011;45933;51.336;12.612;2024-01-10T01:41:38;68.60;;;28.03;;
60060;SDS011;45933;51.336;12.612;2024-01-10T01:44:04;66.93;;;26.67;;
60060;SDS011;45933;51.336;12.612;2024-01-10T01:46:29;63.73;;;27.83;;
60060;SDS011;45933;51.336;12.612;2024-01-10T01:48:56;71.93;;;27.97;;
60060;SDS011;45933;51.336;12.612;2024-01-10T01:51:21;66.17;;;27.47;;
60060;SDS011;45933;51.336;12.612;2024-01-10T01:53:47;67.33;;;27.80;;
60060;SDS011;45933;51.336;12.612;2024-01-10T01:56:14;69.83;;;26.77;;
60060;SDS011;45933;51.336;12.612;2024-01-10T01:58:41;67.23;;;27.57;;
60060;SDS011;45933;51.336;12.612;2024-01-10T02:01:08;64.40;;;27.70;;
60060;SDS011;45933;51.336;12.612;2024-01-10T02:03:36;69.03;;;27.17;;
60060;SDS011;45933;51.336;12.612;2024-01-10T02:06:01;70.90;;;27.70;;
60060;SDS011;45933;51.336;12.612;2024-01-10T02:08:29;68.87;;;27.97;;
60060;SDS011;45933;51.336;12.612;2024-01-10T02:10:56;65.13;;;27.30;;
60060;SDS011;45933;51.336;12.612;2024-01-10T02:13:21;62.63;;;27.63;;
60060;SDS011;45933;51.336;12.612;2024-01-10T02:15:46;64.27;;;28.07;;
60060;SDS011;45933;51.336;12.612;2024-01-10T02:18:12;66.90;;;26.77;;
60060;SDS011;45933;51.336;12.612;2024-01-10T02:20:39;61.67;;;26.20;;
60060;SDS011;45933;51.336;12.612;2024-01-10T02:23:04;66.80;;;26.67;;
60060;SDS011;45933;51.336;12.612;2024-01-10T02:25:29;65.13;;;26.80;;
60060;SDS011;45933;51.336;12.612;2024-01-10T02:27:55;64.53;;;26.13;;
60060;SDS011;45933;51.336;12.612;2024-01-10T02:30:20;57.00;;;25.20;;
60060;SDS011;45933;51.336;12.612;2024-01-10T02:32:45;61.43;;;25.33;;
60060;SDS011;45933;51.336;12.612;2024-01-10T02:35:10;67.73;;;26.97;;
60060;SDS011;45933;51.336;12.612;2024-01-10T02:37:36;69.83;;;28.23;;
60060;SDS011;45933;51.336;12.612;2024-01-10T02:40:01;68.70;;;26.43;;
60060;SDS011;45933;51.336;12.612;2024-01-10T02:42:27;65.33;;;27.73;;
60060;SDS011;45933;51.336;12.612;2024-01-10T02:44:53;71.33;;;27.93;;
60060;SDS011;45933;51.336;12.612;2024-01-10T02:47:19;68.83;;;27.17;;
60060;SDS011;45933;51.336;12.612;2024-01-10T02:49:44;66.60;;;27.10;;
60060;SDS011;45933;51.336;12.612;2024-01-10T02:52:09;66.87;;;27.90;;
60060;SDS011;45933;51.336;12.612;2024-01-10T02:54:34;69.07;;;27.13;;
60060;SDS011;45933;51.336;12.612;2024-01-10T02:57:00;60.27;;;26.63;;
60060;SDS011;45933;51.336;12.612;2024-01-10T02:59:25;66.27;;;26.00;;
60060;SDS011;45933;51.336;12.612;2024-01-10T03:01:50;68.47;;;27.27;;
60060;SDS011;45933;51.336;12.612;2024-01-10T03:04:16;70.90;;;28.47;;
60060;SDS011;45933;51.336;12.612;2024-01-10T03:06:41;64.23;;;27.63;;
60060;SDS011;45933;51.336;12.612;2024-01-10T03:09:06;62.90;;;26.27;;
60060;SDS011;45933;51.336;12.612;2024-01-10T03:11:32;67.93;;;28.00;;
60060;SDS011;45933;51.336;12.612;2024-01-10T03:14:03;66.00;;;27.20;;
60060;SDS011;45933;51.336;12.612;2024-01-10T03:16:34;65.57;;;28.27;;
60060;SDS011;45933;51.336;12.612;2024-01-10T03:18:59;63.33;;;27.60;;
60060;SDS011;45933;51.336;12.612;2024-01-10T03:21:25;70.40;;;28.87;;
60060;SDS011;45933;51.336;12.612;2024-01-10T03:23:51;65.93;;;27.53;;
60060;SDS011;45933;51.336;12.612;2024-01-10T03:26:17;64.77;;;27.77;;
60060;SDS011;45933;51.336;12.612;2024-01-10T03:28:42;65.73;;;28.43;;
60060;SDS011;45933;51.336;12.612;2024-01-10T03:31:08;63.40;;;27.73;;
60060;SDS011;45933;51.336;12.612;2024-01-10T03:33:36;66.87;;;28.20;;
60060;SDS011;45933;51.336;12.612;2024-01-10T03:36:01;70.97;;;28.23;;
60060;SDS011;45933;51.336;12.612;2024-01-10T03:38:26;73.20;;;29.23;;
60060;SDS011;45933;51.336;12.612;2024-01-10T03:40:52;71.27;;;28.63;;
60060;SDS011;45933;51.336;12.612;2024-01-10T03:43:17;67.67;;;28.10;;
60060;SDS011;45933;51.336;12.612;2024-01-10T03:45:42;62.37;;;26.17;;
60060;SDS011;45933;51.336;12.612;2024-01-10T03:48:07;63.70;;;27.37;;
60060;SDS011;45933;51.336;12.612;2024-01-10T03:50:33;66.73;;;28.13;;
60060;SDS011;45933;51.336;12.612;2024-01-10T03:52:58;67.00;;;26.73;;
60060;SDS011;45933;51.336;12.612;2024-01-10T03:55:23;70.43;;;28.73;;
60060;SDS011;45933;51.336;12.612;2024-01-10T03:57:48;63.70;;;26.80;;
60060;SDS011;45933;51.336;12.612;2024-01-10T04:00:14;67.23;;;28.13;;
60060;SDS011;45933;51.336;12.612;2024-01-10T04:02:39;69.87;;;27.93;;
60060;SDS011;45933;51.336;12.612;2024-01-10T04:05:06;68.67;;;27.47;;
60060;SDS011;45933;51.336;12.612;2024-01-10T04:07:36;61.57;;;25.20;;
60060;SDS011;45933;51.336;12.612;2024-01-10T04:10:02;68.43;;;28.47;;
60060;SDS011;45933;51.336;12.612;2024-01-10T04:12:27;68.60;;;27.70;;
60060;SDS011;45933;51.336;12.612;2024-01-10T04:14:53;64.97;;;27.67;;
60060;SDS011;45933;51.336;12.612;2024-01-10T04:17:18;69.53;;;28.80;;
60060;SDS011;45933;51.336;12.612;2024-01-10T04:19:43;73.63;;;28.20;;
60060;SDS011;45933;51.336;12.612;2024-01-10T04:22:08;68.73;;;27.13;;
60060;SDS011;45933;51.336;12.612;2024-01-10T04:24:34;71.60;;;29.00;;
60060;SDS011;45933;51.336;12.612;2024-01-10T04:26:59;69.93;;;28.63;;
60060;SDS011;45933;51.336;12.612;2024-01-10T04:29:24;65.60;;;27.63;;
60060;SDS011;45933;51.336;12.612;2024-01-10T04:31:49;65.83;;;27.57;;
60060;SDS011;45933;51.336;12.612;2024-01-10T04:34:15;73.80;;;30.23;;
60060;SDS011;45933;51.336;12.612;2024-01-10T04:36:40;72.20;;;28.90;;
60060;SDS011;45933;51.336;12.612;2024-01-10T04:39:05;64.70;;;27.30;;
60060;SDS011;45933;51.336;12.612;2024-01-10T04:41:30;66.53;;;26.53;;
60060;SDS011;45933;51.336;12.612;2024-01-10T04:43:56;67.00;;;27.00;;
60060;SDS011;45933;51.336;12.612;2024-01-10T04:46:22;65.77;;;28.40;;
60060;SDS011;45933;51.336;12.612;2024-01-10T04:48:47;68.30;;;28.40;;
60060;SDS011;45933;51.336;12.612;2024-01-10T04:51:12;61.87;;;25.63;;
60060;SDS011;45933;51.336;12.612;2024-01-10T04:53:37;62.77;;;26.57;;
60060;SDS011;45933;51.336;12.612;2024-01-10T04:56:03;64.67;;;26.73;;
60060;SDS011;45933;51.336;12.612;2024-01-10T04:58:28;64.10;;;27.10;;
60060;SDS011;45933;51.336;12.612;2024-01-10T05:00:54;65.50;;;27.53;;
60060;SDS011;45933;51.336;12.612;2024-01-10T05:03:20;66.90;;;28.03;;
60060;SDS011;45933;51.336;12.612;2024-01-10T05:05:45;63.10;;;26.63;;
60060;SDS011;45933;51.336;12.612;2024-01-10T05:08:10;66.30;;;27.17;;
60060;SDS011;45933;51.336;12.612;2024-01-10T05:10:35;65.73;;;26.93;;
60060;SDS011;45933;51.336;12.612;2024-01-10T05:13:01;61.03;;;27.20;;
60060;SDS011;45933;51.336;12.612;2024-01-10T05:15:26;67.70;;;27.63;;
60060;SDS011;45933;51.336;12.612;2024-01-10T05:17:51;61.80;;;27.10;;
60060;SDS011;45933;51.336;12.612;2024-01-10T05:20:17;67.63;;;28.27;;
60060;SDS011;45933;51.336;12.612;2024-01-10T05:22:42;65.57;;;27.63;;
60060;SDS011;45933;51.336;12.612;2024-01-10T05:25:08;68.40;;;27.77;;
60060;SDS011;45933;51.336;12.612;2024-01-10T05:27:33;65.60;;;27.17;;
60060;SDS011;45933;51.336;12.612;2024-01-10T05:29:58;66.40;;;27.37;;
60060;SDS011;45933;51.336;12.612;2024-01-10T05:32:24;71.83;;;28.23;;
60060;SDS011;45933;51.336;12.612;2024-01-10T05:34:50;63.13;;;27.07;;
60060;SDS011;45933;51.336;12.612;2024-01-10T05:37:15;70.37;;;28.77;;
60060;SDS011;45933;51.336;12.612;2024-01-10T05:39:41;64.70;;;26.10;;
60060;SDS011;45933;51.336;12.612;2024-01-10T05:42:06;65.17;;;28.17;;
60060;SDS011;45933;51.336;12.612;2024-01-10T05:44:31;71.13;;;27.77;;
60060;SDS011;45933;51.336;12.612;2024-01-10T05:46:56;65.57;;;27.53;;
60060;SDS011;45933;51.336;12.612;2024-01-10T05:49:24;62.47;;;26.30;;
60060;SDS011;45933;51.336;12.612;2024-01-10T05:51:50;62.13;;;26.90;;
60060;SDS011;45933;51.336;12.612;2024-01-10T05:54:15;66.10;;;27.23;;
60060;SDS011;45933;51.336;12.612;2024-01-10T05:56:40;69.50;;;26.80;;
60060;SDS011;45933;51.336;12.612;2024-01-10T05:59:06;65.63;;;26.73;;
60060;SDS011;45933;51.336;12.612;2024-01-10T06:01:31;69.80;;;27.87;;
60060;SDS011;45933;51.336;12.612;2024-01-10T06:03:56;61.00;;;26.53;;
60060;SDS011;45933;51.336;12.612;2024-01-10T06:06:21;67.77;;;27.67;;
60060;SDS011;45933;51.336;12.612;2024-01-10T06:08:47;66.13;;;25.50;;
60060;SDS011;45933;51.336;12.612;2024-01-10T06:11:12;78.83;;;27.67;;
60060;SDS011;45933;51.336;12.612;2024-01-10T06:13:37;67.93;;;27.13;;
60060;SDS011;45933;51.336;12.612;2024-01-10T06:16:03;70.13;;;28.13;;
60060;SDS011;45933;51.336;12.612;2024-01-10T06:18:29;76.77;;;29.03;;
60060;SDS011;45933;51.336;12.612;2024-01-10T06:20:54;66.10;;;28.53;;
60060;SDS011;45933;51.336;12.612;2024-01-10T06:23:19;70.63;;;28.00;;
60060;SDS011;45933;51.336;12.612;2024-01-10T06:25:44;64.57;;;27.77;;
60060;SDS011;45933;51.336;12.612;2024-01-10T06:28:10;64.77;;;26.27;;
60060;SDS011;45933;51.336;12.612;2024-01-10T06:30:35;69.07;;;28.73;;
60060;SDS011;45933;51.336;12.612;2024-01-10T06:33:00;64.53;;;27.43;;
60060;SDS011;45933;51.336;12.612;2024-01-10T06:35:26;68.03;;;27.13;;
60060;SDS011;45933;51.336;12.612;2024-01-10T06:37:51;71.23;;;29.43;;
60060;SDS011;45933;51.336;12.612;2024-01-10T06:40:16;66.90;;;30.57;;
60060;SDS011;45933;51.336;12.612;2024-01-10T06:42:42;67.53;;;30.47;;
60060;SDS011;45933;51.336;12.612;2024-01-10T06:45:07;73.07;;;29.33;;
60060;SDS011;45933;51.336;12.612;2024-01-10T06:47:33;68.90;;;28.47;;
60060;SDS011;45933;51.336;12.612;2024-01-10T06:49:59;65.83;;;28.93;;
60060;SDS011;45933;51.336;12.612;2024-01-10T06:52:24;77.20;;;30.60;;
60060;SDS011;45933;51.336;12.612;2024-01-10T06:54:49;85.07;;;35.97;;
60060;SDS011;45933;51.336;12.612;2024-01-10T06:57:15;84.33;;;34.23;;
60060;SDS011;45933;51.336;12.612;2024-01-10T06:59:40;84.43;;;34.97;;
60060;SDS011;45933;51.336;12.612;2024-01-10T07:02:05;77.43;;;32.60;;
60060;SDS011;45933;51.336;12.612;2024-01-10T07:04:30;75.50;;;31.97;;
60060;SDS011;45933;51.336;12.612;2024-01-10T07:06:57;109.33;;;49.93;;
60060;SDS011;45933;51.336;12.612;2024-01-10T07:09:22;93.17;;;42.97;;
60060;SDS011;45933;51.336;12.612;2024-01-10T07:11:48;99.67;;;42.10;;
60060;SDS011;45933;51.336;12.612;2024-01-10T07:14:14;87.80;;;40.23;;
60060;SDS011;45933;51.336;12.612;2024-01-10T07:16:40;83.30;;;36.40;;
60060;SDS011;45933;51.336;12.612;2024-01-10T07:19:08;83.97;;;38.83;;
60060;SDS011;45933;51.336;12.612;2024-01-10T07:21:34;88.20;;;37.40;;
60060;SDS011;45933;51.336;12.612;2024-01-10T07:23:59;110.80;;;50.07;;
60060;SDS011;45933;51.336;12.612;2024-01-10T07:26:27;80.83;;;37.03;;
60060;SDS011;45933;51.336;12.612;2024-01-10T07:28:52;101.93;;;46.33;;
60060;SDS011;45933;51.336;12.612;2024-01-10T07:31:18;93.37;;;37.57;;
60060;SDS011;45933;51.336;12.612;2024-01-10T07:33:43;81.00;;;36.70;;
60060;SDS011;45933;51.336;12.612;2024-01-10T07:36:08;74.80;;;32.50;;
60060;SDS011;45933;51.336;12.612;2024-01-10T07:38:34;72.27;;;30.47;;
60060;SDS011;45933;51.336;12.612;2024-01-10T07:40:59;73.20;;;31.03;;
60060;SDS011;45933;51.336;12.612;2024-01-10T07:43:24;76.77;;;28.63;;
60060;SDS011;45933;51.336;12.612;2024-01-10T07:45:49;65.00;;;28.10;;
60060;SDS011;45933;51.336;12.612;2024-01-10T07:48:15;68.57;;;29.73;;
60060;SDS011;45933;51.336;12.612;2024-01-10T07:50:40;71.57;;;30.37;;
60060;SDS011;45933;51.336;12.612;2024-01-10T07:53:05;68.00;;;28.77;;
60060;SDS011;45933;51.336;12.612;2024-01-10T07:55:30;68.60;;;27.70;;
60060;SDS011;45933;51.336;12.612;2024-01-10T07:57:56;66.97;;;28.40;;
60060;SDS011;45933;51.336;12.612;2024-01-10T08:00:21;70.70;;;29.47;;
60060;SDS011;45933;51.336;12.612;2024-01-10T08:02:47;65.50;;;27.53;;
60060;SDS011;45933;51.336;12.612;2024-01-10T08:05:13;77.07;;;33.53;;
60060;SDS011;45933;51.336;12.612;2024-01-10T08:07:39;72.80;;;30.27;;
60060;SDS011;45933;51.336;12.612;2024-01-10T08:10:05;66.77;;;28.70;;
60060;SDS011;45933;51.336;12.612;2024-01-10T08:12:34;73.53;;;30.93;;
60060;SDS011;45933;51.336;12.612;2024-01-10T08:15:00;68.43;;;29.33;;
60060;SDS011;45933;51.336;12.612;2024-01-10T08:17:25;70.97;;;30.73;;
60060;SDS011;45933;51.336;12.612;2024-01-10T08:19:51;71.43;;;29.87;;
60060;SDS011;45933;51.336;12.612;2024-01-10T08:22:17;68.10;;;29.17;;
60060;SDS011;45933;51.336;12.612;2024-01-10T08:24:42;71.40;;;28.87;;
60060;SDS011;45933;51.336;12.612;2024-01-10T08:27:09;67.13;;;28.33;;
60060;SDS011;45933;51.336;12.612;2024-01-10T08:29:35;63.87;;;28.93;;
60060;SDS011;45933;51.336;12.612;2024-01-10T08:32:03;68.87;;;30.83;;
60060;SDS011;45933;51.336;12.612;2024-01-10T08:34:29;71.30;;;32.67;;
60060;SDS011;45933;51.336;12.612;2024-01-10T08:36:54;67.90;;;30.90;;
60060;SDS011;45933;51.336;12.612;2024-01-10T08:39:19;72.60;;;32.10;;
60060;SDS011;45933;51.336;12.612;2024-01-10T08:41:46;64.23;;;30.27;;
60060;SDS011;45933;51.336;12.612;2024-01-10T08:44:12;67.23;;;30.60;;
60060;SDS011;45933;51.336;12.612;2024-01-10T08:46:37;66.90;;;32.00;;
60060;SDS011;45933;51.336;12.612;2024-01-10T08:49:03;62.23;;;30.87;;
60060;SDS011;45933;51.336;12.612;2024-01-10T08:51:28;75.67;;;35.37;;
60060;SDS011;45933;51.336;12.612;2024-01-10T08:53:53;68.83;;;32.53;;
60060;SDS011;45933;51.336;12.612;2024-01-10T08:56:18;66.87;;;31.77;;
60060;SDS011;45933;51.336;12.612;2024-01-10T08:58:44;69.47;;;32.20;;
60060;SDS011;45933;51.336;12.612;2024-01-10T09:01:10;72.57;;;32.97;;
60060;SDS011;45933;51.336;12.612;2024-01-10T09:03:35;67.80;;;31.07;;
60060;SDS011;45933;51.336;12.612;2024-01-10T09:06:01;66.73;;;31.47;;
60060;SDS011;45933;51.336;12.612;2024-01-10T09:08:26;69.33;;;32.83;;
60060;SDS011;45933;51.336;12.612;2024-01-10T09:10:53;74.33;;;32.87;;
60060;SDS011;45933;51.336;12.612;2024-01-10T09:13:18;60.27;;;30.33;;
60060;SDS011;45933;51.336;12.612;2024-01-10T09:15:43;67.73;;;32.90;;
60060;SDS011;45933;51.336;12.612;2024-01-10T09:18:08;62.00;;;30.50;;
60060;SDS011;45933;51.336;12.612;2024-01-10T09:20:34;61.93;;;32.13;;
60060;SDS011;45933;51.336;12.612;2024-01-10T09:23:00;63.60;;;31.10;;
60060;SDS011;45933;51.336;12.612;2024-01-10T09:25:26;59.30;;;31.00;;
60060;SDS011;45933;51.336;12.612;2024-01-10T09:27:51;60.90;;;32.03;;
60060;SDS011;45933;51.336;12.612;2024-01-10T09:30:16;57.30;;;30.03;;
60060;SDS011;45933;51.336;12.612;2024-01-10T09:32:43;60.83;;;31.53;;
60060;SDS011;45933;51.336;12.612;2024-01-10T09:35:08;51.90;;;29.67;;
60060;SDS011;45933;51.336;12.612;2024-01-10T09:37:33;56.83;;;31.77;;
60060;SDS011;45933;51.336;12.612;2024-01-10T09:39:59;56.63;;;32.40;;
60060;SDS011;45933;51.336;12.612;2024-01-10T09:42:24;58.17;;;30.80;;
60060;SDS011;45933;51.336;12.612;2024-01-10T09:44:52;55.87;;;31.57;;
60060;SDS011;45933;51.336;12.612;2024-01-10T09:47:19;56.90;;;31.50;;
60060;SDS011;45933;51.336;12.612;2024-01-10T09:49:45;52.80;;;30.97;;
60060;SDS011;45933;51.336;12.612;2024-01-10T09:52:11;65.63;;;35.30;;
60060;SDS011;45933;51.336;12.612;2024-01-10T09:54:55;63.00;;;31.93;;
60060;SDS011;45933;51.336;12.612;2024-01-10T09:57:22;53.00;;;30.73;;
60060;SDS011;45933;51.336;12.612;2024-01-10T09:59:48;55.57;;;32.30;;
60060;SDS011;45933;51.336;12.612;2024-01-10T10:02:16;56.08;;;34.20;;
60060;SDS011;45933;51.336;12.612;2024-01-10T10:04:44;59.75;;;34.00;;
60060;SDS011;45933;51.336;12.612;2024-01-10T10:07:19;54.90;;;32.35;;
60060;SDS011;45933;51.336;12.612;2024-01-10T10:09:45;53.92;;;32.90;;
60060;SDS011;45933;51.336;12.612;2024-01-10T10:12:10;56.63;;;32.75;;
60060;SDS011;45933;51.336;12.612;2024-01-10T10:14:35;52.45;;;31.23;;
60060;SDS011;45933;51.336;12.612;2024-01-10T10:17:13;53.50;;;32.95;;
60060;SDS011;45933;51.336;12.612;2024-01-10T10:19:42;49.42;;;31.85;;
60060;SDS011;45933;51.336;12.612;2024-01-10T10:22:08;51.85;;;34.30;;
60060;SDS011;45933;51.336;12.612;2024-01-10T10:24:34;53.75;;;33.47;;
60060;SDS011;45933;51.336;12.612;2024-01-10T10:26:59;52.60;;;33.35;;
60060;SDS011;45933;51.336;12.612;2024-01-10T10:29:25;50.08;;;31.63;;
60060;SDS011;45933;51.336;12.612;2024-01-10T10:31:50;51.53;;;33.13;;
60060;SDS011;45933;51.336;12.612;2024-01-10T10:34:17;51.67;;;33.47;;
60060;SDS011;45933;51.336;12.612;2024-01-10T10:36:46;50.50;;;31.92;;
60060;SDS011;45933;51.336;12.612;2024-01-10T10:39:14;50.28;;;32.03;;
60060;SDS011;45933;51.336;12.612;2024-01-10T10:41:41;56.75;;;34.47;;
60060;SDS011;45933;51.336;12.612;2024-01-10T10:44:07;53.00;;;32.35;;
60060;SDS011;45933;51.336;12.612;2024-01-10T10:46:34;48.80;;;32.78;;
60060;SDS011;45933;51.336;12.612;2024-01-10T10:49:04;48.25;;;31.95;;
60060;SDS011;45933;51.336;12.612;2024-01-10T10:51:34;48.30;;;31.67;;
60060;SDS011;45933;51.336;12.612;2024-01-10T10:54:02;48.15;;;31.85;;
60060;SDS011;45933;51.336;12.612;2024-01-10T10:56:29;49.15;;;31.92;;
60060;SDS011;45933;51.336;12.612;2024-01-10T10:58:57;47.88;;;32.53;;
60060;SDS011;45933;51.336;12.612;2024-01-10T11:01:25;50.47;;;33.28;;
60060;SDS011;45933;51.336;12.612;2024-01-10T11:03:52;47.70;;;31.85;;
60060;SDS011;45933;51.336;12.612;2024-01-10T11:06:17;46.70;;;32.13;;
60060;SDS011;45933;51.336;12.612;2024-01-10T11:08:44;50.42;;;33.05;;
60060;SDS011;45933;51.336;12.612;2024-01-10T11:11:34;51.00;;;33.47;;
60060;SDS011;45933;51.336;12.612;2024-01-10T11:14:18;49.72;;;31.98;;
60060;SDS011;45933;51.336;12.612;2024-01-10T11:20:13;50.60;;;32.67;;
60060;SDS011;45933;51.336;12.612;2024-01-10T11:23:45;49.50;;;31.42;;
60060;SDS011;45933;51.336;12.612;2024-01-10T11:25:58;49.17;;;32.53;;
60060;SDS011;45933;51.336;12.612;2024-01-10T11:28:25;49.33;;;33.00;;
60060;SDS011;45933;51.336;12.612;2024-01-10T11:30:52;55.67;;;38.33;;
60060;SDS011;45933;51.336;12.612;2024-01-10T11:33:22;53.97;;;38.63;;
60060;SDS011;45933;51.336;12.612;2024-01-10T11:36:30;50.65;;;35.22;;
60060;SDS011;45933;51.336;12.612;2024-01-10T11:41:49;51.72;;;34.70;;
60060;SDS011;45933;51.336;12.612;2024-01-10T11:46:33;50.90;;;33.75;;
60060;SDS011;45933;51.336;12.612;2024-01-10T11:48:59;51.22;;;33.92;;
60060;SDS011;45933;51.336;12.612;2024-01-10T11:51:25;50.25;;;33.15;;
60060;SDS011;45933;51.336;12.612;2024-01-10T11:53:50;47.67;;;33.20;;
60060;SDS011;45933;51.336;12.612;2024-01-10T11:56:17;52.47;;;35.53;;
60060;SDS011;45933;51.336;12.612;2024-01-10T12:01:30;44.75;;;32.08;;
60060;SDS011;45933;51.336;12.612;2024-01-10T12:03:56;53.17;;;36.33;;
60060;SDS011;45933;51.336;12.612;2024-01-10T12:06:22;50.38;;;33.63;;
60060;SDS011;45933;51.336;12.612;2024-01-10T12:08:50;47.90;;;32.80;;
60060;SDS011;45933;51.336;12.612;2024-01-10T12:11:15;49.65;;;33.25;;
60060;SDS011;45933;51.336;12.612;2024-01-10T12:13:41;50.17;;;34.35;;
60060;SDS011;45933;51.336;12.612;2024-01-10T12:16:06;46.33;;;32.15;;
60060;SDS011;45933;51.336;12.612;2024-01-10T12:18:32;45.72;;;32.97;;
60060;SDS011;45933;51.336;12.612;2024-01-10T12:20:57;53.47;;;36.65;;
60060;SDS011;45933;51.336;12.612;2024-01-10T12:23:22;48.72;;;32.67;;
60060;SDS011;45933;51.336;12.612;2024-01-10T12:25:49;46.90;;;33.28;;
60060;SDS011;45933;51.336;12.612;2024-01-10T12:28:17;48.42;;;33.55;;
60060;SDS011;45933;51.336;12.612;2024-01-10T12:30:42;53.05;;;35.65;;
60060;SDS011;45933;51.336;12.612;2024-01-10T12:33:11;51.28;;;34.55;;
60060;SDS011;45933;51.336;12.612;2024-01-10T12:35:36;51.08;;;34.13;;
60060;SDS011;45933;51.336;12.612;2024-01-10T12:38:06;50.33;;;36.10;;
60060;SDS011;45933;51.336;12.612;2024-01-10T12:40:31;51.05;;;34.70;;
60060;SDS011;45933;51.336;12.612;2024-01-10T12:43:03;50.63;;;34.00;;
60060;SDS011;45933;51.336;12.612;2024-01-10T12:45:29;55.75;;;37.42;;
60060;SDS011;45933;51.336;12.612;2024-01-10T12:47:54;51.45;;;35.55;;
60060;SDS011;45933;51.336;12.612;2024-01-10T12:50:20;54.75;;;34.83;;
60060;SDS011;45933;51.336;12.612;2024-01-10T12:52:45;69.00;;;42.60;;
60060;SDS011;45933;51.336;12.612;2024-01-10T12:55:11;54.75;;;36.55;;
60060;SDS011;45933;51.336;12.612;2024-01-10T12:57:37;51.70;;;34.35;;
60060;SDS011;45933;51.336;12.612;2024-01-10T13:00:03;49.38;;;34.15;;
60060;SDS011;45933;51.336;12.612;2024-01-10T13:02:31;53.17;;;34.63;;
60060;SDS011;45933;51.336;12.612;2024-01-10T13:05:00;46.75;;;33.03;;
60060;SDS011;45933;51.336;12.612;2024-01-10T13:07:25;47.40;;;33.33;;
60060;SDS011;45933;51.336;12.612;2024-01-10T13:09:52;49.60;;;32.72;;
60060;SDS011;45933;51.336;12.612;2024-01-10T13:12:18;50.10;;;34.28;;
60060;SDS011;45933;51.336;12.612;2024-01-10T13:14:45;49.78;;;33.58;;
60060;SDS011;45933;51.336;12.612;2024-01-10T13:17:10;51.38;;;32.35;;
60060;SDS011;45933;51.336;12.612;2024-01-10T13:19:35;51.20;;;34.72;;
60060;SDS011;45933;51.336;12.612;2024-01-10T13:22:01;51.70;;;34.95;;
60060;SDS011;45933;51.336;12.612;2024-01-10T13:24:28;51.58;;;32.03;;
60060;SDS011;45933;51.336;12.612;2024-01-10T13:26:54;49.97;;;33.58;;
60060;SDS011;45933;51.336;12.612;2024-01-10T13:29:19;52.35;;;32.83;;
60060;SDS011;45933;51.336;12.612;2024-01-10T13:31:48;53.50;;;34.97;;
60060;SDS011;45933;51.336;12.612;2024-01-10T13:34:14;50.50;;;32.47;;
60060;SDS011;45933;51.336;12.612;2024-01-10T13:36:39;50.83;;;34.35;;
60060;SDS011;45933;51.336;12.612;2024-01-10T13:39:05;48.42;;;33.78;;
60060;SDS011;45933;51.336;12.612;2024-01-10T13:41:30;56.20;;;34.97;;
60060;SDS011;45933;51.336;12.612;2024-01-10T13:43:56;56.70;;;35.95;;
60060;SDS011;45933;51.336;12.612;2024-01-10T13:46:21;54.53;;;34.83;;
60060;SDS011;45933;51.336;12.612;2024-01-10T13:48:46;53.60;;;35.85;;
60060;SDS011;45933;51.336;12.612;2024-01-10T13:51:12;50.17;;;33.78;;
60060;SDS011;45933;51.336;12.612;2024-01-10T13:53:37;53.03;;;32.50;;
60060;SDS011;45933;51.336;12.612;2024-01-10T13:56:02;53.90;;;33.42;;
60060;SDS011;45933;51.336;12.612;2024-01-10T13:58:28;56.80;;;35.00;;
60060;SDS011;45933;51.336;12.612;2024-01-10T14:00:53;56.38;;;35.10;;
60060;SDS011;45933;51.336;12.612;2024-01-10T14:03:19;57.60;;;35.50;;
60060;SDS011;45933;51.336;12.612;2024-01-10T14:05:44;54.30;;;33.45;;
60060;SDS011;45933;51.336;12.612;2024-01-10T14:08:09;54.17;;;34.25;;
60060;SDS011;45933;51.336;12.612;2024-01-10T14:10:35;55.63;;;34.37;;
60060;SDS011;45933;51.336;12.612;2024-01-10T14:13:01;52.60;;;33.40;;
60060;SDS011;45933;51.336;12.612;2024-01-10T14:15:26;62.07;;;35.87;;